sensor_id;sensor_type;location;lat;lon;timestamp;pressure;altitude;pressure_sealevel;temperature;humidity
60820;BME280;46641;48.904;9.126;2023-05-20T00:03:12;98714.97;;;17.92;48.73
60820;BME280;46641;48.904;9.126;2023-05-20T00:08:02;98711.88;;;17.89;48.82
60820;BME280;46641;48.904;9.126;2023-05-20T00:12:56;98717.75;;;17.84;48.87
60820;BME280;46641;48.904;9.126;2023-05-20T00:17:46;98718.94;;;17.82;48.58
60820;BME280;46641;48.904;9.126;2023-05-20T00:22:36;98714.84;;;17.79;48.75
60820;BME280;46641;48.904;9.126;2023-05-20T00:27:27;98706.78;;;17.72;48.91
60820;BME280;46641;48.904;9.126;2023-05-20T00:32:17;98706.34;;;17.69;49.16
60820;BME280;46641;48.904;9.126;2023-05-20T00:37:07;98705.91;;;17.65;49.16
60820;BME280;46641;48.904;9.126;2023-05-20T00:41:57;98715.03;;;17.63;49.68
60820;BME280;46641;48.904;9.126;2023-05-20T00:46:49;98706.66;;;17.59;49.45
60820;BME280;46641;48.904;9.126;2023-05-20T00:51:40;98714.78;;;17.58;49.52
60820;BME280;46641;48.904;9.126;2023-05-20T00:56:30;98698.44;;;17.54;49.80
60820;BME280;46641;48.904;9.126;2023-05-20T01:01:20;98703.13;;;17.52;49.88
60820;BME280;46641;48.904;9.126;2023-05-20T01:06:11;98702.69;;;17.48;50.35
60820;BME280;46641;48.904;9.126;2023-05-20T01:11:10;98701.22;;;17.46;50.53
60820;BME280;46641;48.904;9.126;2023-05-20T01:16:03;98689.81;;;17.45;50.66
60820;BME280;46641;48.904;9.126;2023-05-20T01:20:54;98697.94;;;17.44;50.70
60820;BME280;46641;48.904;9.126;2023-05-20T01:25:45;98688.75;;;17.40;50.64
60820;BME280;46641;48.904;9.126;2023-05-20T01:30:41;98694.19;;;17.38;50.97
60820;BME280;46641;48.904;9.126;2023-05-20T01:35:33;98697.88;;;17.37;51.39
60820;BME280;46641;48.904;9.126;2023-05-20T01:40:26;98680.34;;;17.36;51.37
60820;BME280;46641;48.904;9.126;2023-05-20T01:45:17;98674.41;;;17.34;51.56
60820;BME280;46641;48.904;9.126;2023-05-20T01:50:07;98683.19;;;17.35;51.77
60820;BME280;46641;48.904;9.126;2023-05-20T01:54:58;98679.91;;;17.33;51.74
60820;BME280;46641;48.904;9.126;2023-05-20T01:59:49;98680.28;;;17.29;51.87
60820;BME280;46641;48.904;9.126;2023-05-20T02:04:39;98679.63;;;17.27;52.14
60820;BME280;46641;48.904;9.126;2023-05-20T02:09:31;98676.34;;;17.25;52.19
60820;BME280;46641;48.904;9.126;2023-05-20T02:14:21;98676.75;;;17.22;52.19
60820;BME280;46641;48.904;9.126;2023-05-20T02:19:12;98669.19;;;17.19;52.39
60820;BME280;46641;48.904;9.126;2023-05-20T02:24:02;98664.25;;;17.16;52.46
60820;BME280;46641;48.904;9.126;2023-05-20T02:28:54;98662.00;;;17.13;52.78
60820;BME280;46641;48.904;9.126;2023-05-20T02:33:44;98662.34;;;17.10;52.49
60820;BME280;46641;48.904;9.126;2023-05-20T02:38:35;98665.81;;;17.11;52.57
60820;BME280;46641;48.904;9.126;2023-05-20T02:43:25;98667.09;;;17.15;52.44
60820;BME280;46641;48.904;9.126;2023-05-20T02:48:15;98662.97;;;17.12;52.77
60820;BME280;46641;48.904;9.126;2023-05-20T02:53:05;98658.06;;;17.09;52.68
60820;BME280;46641;48.904;9.126;2023-05-20T02:57:56;98660.09;;;17.07;53.17
60820;BME280;46641;48.904;9.126;2023-05-20T03:02:46;98657.97;;;17.02;53.63
60820;BME280;46641;48.904;9.126;2023-05-20T03:07:36;98660.38;;;16.97;53.21
60820;BME280;46641;48.904;9.126;2023-05-20T03:12:27;98657.91;;;16.96;53.40
60820;BME280;46641;48.904;9.126;2023-05-20T03:17:17;98663.63;;;16.99;53.15
60820;BME280;46641;48.904;9.126;2023-05-20T03:22:07;98664.56;;;17.07;53.17
60820;BME280;46641;48.904;9.126;2023-05-20T03:26:58;98660.69;;;17.09;53.01
60820;BME280;46641;48.904;9.126;2023-05-20T03:31:48;98660.31;;;17.12;52.89
60820;BME280;46641;48.904;9.126;2023-05-20T03:36:38;98665.44;;;17.14;52.83
60820;BME280;46641;48.904;9.126;2023-05-20T03:41:29;98668.72;;;17.16;52.91
60820;BME280;46641;48.904;9.126;2023-05-20T03:46:19;98662.59;;;17.15;52.77
60820;BME280;46641;48.904;9.126;2023-05-20T03:51:09;98678.47;;;17.15;52.80
60820;BME280;46641;48.904;9.126;2023-05-20T03:56:00;98682.13;;;17.14;52.85
60820;BME280;46641;48.904;9.126;2023-05-20T04:00:50;98678.84;;;17.12;52.68
60820;BME280;46641;48.904;9.126;2023-05-20T04:05:40;98675.38;;;17.12;52.74
60820;BME280;46641;48.904;9.126;2023-05-20T04:10:31;98677.22;;;17.11;52.74
60820;BME280;46641;48.904;9.126;2023-05-20T04:15:21;98661.72;;;17.08;52.67
60820;BME280;46641;48.904;9.126;2023-05-20T04:20:13;98663.72;;;17.06;52.71
60820;BME280;46641;48.904;9.126;2023-05-20T04:25:03;98662.09;;;17.05;52.83
60820;BME280;46641;48.904;9.126;2023-05-20T04:29:55;98667.56;;;17.03;52.71
60820;BME280;46641;48.904;9.126;2023-05-20T04:34:47;98653.91;;;17.00;52.71
60820;BME280;46641;48.904;9.126;2023-05-20T04:39:38;98659.19;;;17.00;52.98
60820;BME280;46641;48.904;9.126;2023-05-20T04:44:29;98658.34;;;16.99;52.94
60820;BME280;46641;48.904;9.126;2023-05-20T04:49:19;98648.97;;;16.97;53.13
60820;BME280;46641;48.904;9.126;2023-05-20T04:54:10;98648.97;;;16.97;53.37
60820;BME280;46641;48.904;9.126;2023-05-20T04:59:00;98652.59;;;16.96;53.33
60820;BME280;46641;48.904;9.126;2023-05-20T05:03:50;98653.81;;;16.93;53.32
60820;BME280;46641;48.904;9.126;2023-05-20T05:08:41;98652.97;;;16.93;53.44
60820;BME280;46641;48.904;9.126;2023-05-20T05:13:31;98653.19;;;16.91;53.41
60820;BME280;46641;48.904;9.126;2023-05-20T05:18:21;98649.72;;;16.91;54.03
60820;BME280;46641;48.904;9.126;2023-05-20T05:23:12;98647.06;;;16.91;53.66
60820;BME280;46641;48.904;9.126;2023-05-20T05:28:02;98643.63;;;16.90;53.85
60820;BME280;46641;48.904;9.126;2023-05-20T05:32:52;98634.66;;;16.91;54.02
60820;BME280;46641;48.904;9.126;2023-05-20T05:37:42;98627.06;;;16.73;55.47
60820;BME280;46641;48.904;9.126;2023-05-20T05:42:33;98624.63;;;16.57;55.71
60820;BME280;46641;48.904;9.126;2023-05-20T05:47:23;98623.03;;;16.41;56.63
60820;BME280;46641;48.904;9.126;2023-05-20T05:52:18;98638.75;;;16.34;57.41
60820;BME280;46641;48.904;9.126;2023-05-20T05:57:08;98634.22;;;16.28;57.39
60820;BME280;46641;48.904;9.126;2023-05-20T06:02:01;98622.81;;;16.28;57.73
60820;BME280;46641;48.904;9.126;2023-05-20T06:06:51;98620.00;;;16.59;56.80
60820;BME280;46641;48.904;9.126;2023-05-20T06:11:41;98619.00;;;16.75;55.93
60820;BME280;46641;48.904;9.126;2023-05-20T06:16:33;98619.53;;;16.85;55.74
60820;BME280;46641;48.904;9.126;2023-05-20T06:21:23;98613.06;;;16.88;55.54
60820;BME280;46641;48.904;9.126;2023-05-20T06:26:14;98625.34;;;16.95;55.53
60820;BME280;46641;48.904;9.126;2023-05-20T06:31:04;98610.38;;;17.02;55.35
60820;BME280;46641;48.904;9.126;2023-05-20T06:35:55;98612.09;;;17.10;55.04
60820;BME280;46641;48.904;9.126;2023-05-20T06:40:46;98586.66;;;17.09;55.10
60820;BME280;46641;48.904;9.126;2023-05-20T06:45:37;98592.41;;;17.13;54.91
60820;BME280;46641;48.904;9.126;2023-05-20T06:50:28;98591.56;;;17.12;55.57
60820;BME280;46641;48.904;9.126;2023-05-20T06:55:18;98580.81;;;17.14;55.43
60820;BME280;46641;48.904;9.126;2023-05-20T07:00:09;98584.06;;;17.16;55.92
60820;BME280;46641;48.904;9.126;2023-05-20T07:05:00;98582.13;;;17.24;55.70
60820;BME280;46641;48.904;9.126;2023-05-20T07:09:51;98583.00;;;17.32;55.42
60820;BME280;46641;48.904;9.126;2023-05-20T07:14:42;98582.63;;;17.35;55.77
60820;BME280;46641;48.904;9.126;2023-05-20T07:19:32;98571.69;;;17.38;55.61
60820;BME280;46641;48.904;9.126;2023-05-20T07:24:22;98573.41;;;17.45;55.68
60820;BME280;46641;48.904;9.126;2023-05-20T07:29:13;98557.16;;;17.48;55.61
60820;BME280;46641;48.904;9.126;2023-05-20T07:34:03;98564.28;;;17.55;55.75
60820;BME280;46641;48.904;9.126;2023-05-20T07:38:54;98554.59;;;17.62;56.10
60820;BME280;46641;48.904;9.126;2023-05-20T07:43:45;98551.75;;;17.63;56.37
60820;BME280;46641;48.904;9.126;2023-05-20T07:48:35;98551.63;;;17.71;55.74
60820;BME280;46641;48.904;9.126;2023-05-20T07:53:25;98553.41;;;17.43;56.86
60820;BME280;46641;48.904;9.126;2023-05-20T07:58:16;98536.22;;;17.11;57.72
60820;BME280;46641;48.904;9.126;2023-05-20T08:03:06;98527.47;;;17.10;57.76
60820;BME280;46641;48.904;9.126;2023-05-20T08:07:57;98527.94;;;17.63;55.96
60820;BME280;46641;48.904;9.126;2023-05-20T08:12:47;98521.84;;;17.91;55.21
60820;BME280;46641;48.904;9.126;2023-05-20T08:17:37;98518.47;;;18.04;54.74
60820;BME280;46641;48.904;9.126;2023-05-20T08:22:27;98516.47;;;18.12;54.52
60820;BME280;46641;48.904;9.126;2023-05-20T08:27:18;98516.06;;;18.15;54.53
60820;BME280;46641;48.904;9.126;2023-05-20T08:32:08;98527.09;;;18.19;54.59
60820;BME280;46641;48.904;9.126;2023-05-20T08:36:58;98521.81;;;18.26;54.10
60820;BME280;46641;48.904;9.126;2023-05-20T08:41:49;98520.66;;;18.35;53.87
60820;BME280;46641;48.904;9.126;2023-05-20T08:46:40;98521.31;;;18.43;53.32
60820;BME280;46641;48.904;9.126;2023-05-20T08:51:32;98523.59;;;18.53;53.35
60820;BME280;46641;48.904;9.126;2023-05-20T08:56:22;98529.72;;;18.60;53.17
60820;BME280;46641;48.904;9.126;2023-05-20T09:01:16;98528.72;;;18.68;53.38
60820;BME280;46641;48.904;9.126;2023-05-20T09:06:07;98533.47;;;18.73;53.07
60820;BME280;46641;48.904;9.126;2023-05-20T09:10:59;98515.75;;;18.80;53.27
60820;BME280;46641;48.904;9.126;2023-05-20T09:15:49;98514.31;;;18.84;53.35
60820;BME280;46641;48.904;9.126;2023-05-20T09:20:39;98516.00;;;18.91;52.93
60820;BME280;46641;48.904;9.126;2023-05-20T09:25:30;98514.34;;;18.97;53.09
60820;BME280;46641;48.904;9.126;2023-05-20T09:30:21;98506.81;;;19.07;52.65
60820;BME280;46641;48.904;9.126;2023-05-20T09:35:12;98499.69;;;19.14;52.35
60820;BME280;46641;48.904;9.126;2023-05-20T09:40:03;98501.34;;;19.22;52.26
60820;BME280;46641;48.904;9.126;2023-05-20T09:44:55;98496.25;;;19.34;52.21
60820;BME280;46641;48.904;9.126;2023-05-20T09:49:48;98503.81;;;19.44;52.11
60820;BME280;46641;48.904;9.126;2023-05-20T09:54:39;98506.22;;;19.52;52.53
60820;BME280;46641;48.904;9.126;2023-05-20T09:59:31;98499.06;;;19.59;53.20
60820;BME280;46641;48.904;9.126;2023-05-20T10:04:22;98490.72;;;19.69;53.25
60820;BME280;46641;48.904;9.126;2023-05-20T10:09:27;98476.00;;;19.79;52.95
60820;BME280;46641;48.904;9.126;2023-05-20T10:14:42;98467.81;;;19.81;51.91
60820;BME280;46641;48.904;9.126;2023-05-20T10:19:38;98459.78;;;20.07;51.70
60820;BME280;46641;48.904;9.126;2023-05-20T10:24:33;98464.94;;;20.41;50.88
60820;BME280;46641;48.904;9.126;2023-05-20T10:29:24;98458.56;;;20.62;50.66
60820;BME280;46641;48.904;9.126;2023-05-20T10:34:15;98456.50;;;20.57;49.57
60820;BME280;46641;48.904;9.126;2023-05-20T10:39:13;98439.50;;;20.65;50.27
60820;BME280;46641;48.904;9.126;2023-05-20T10:44:07;98437.44;;;20.98;52.01
60820;BME280;46641;48.904;9.126;2023-05-20T10:48:58;98436.34;;;21.31;52.16
60820;BME280;46641;48.904;9.126;2023-05-20T10:53:51;98430.84;;;21.51;52.31
60820;BME280;46641;48.904;9.126;2023-05-20T10:58:43;98433.63;;;21.63;52.41
60820;BME280;46641;48.904;9.126;2023-05-20T11:03:34;98427.09;;;21.77;52.43
60820;BME280;46641;48.904;9.126;2023-05-20T11:08:28;98415.72;;;21.88;52.29
60820;BME280;46641;48.904;9.126;2023-05-20T11:13:20;98411.19;;;21.89;51.91
60820;BME280;46641;48.904;9.126;2023-05-20T11:18:10;98418.59;;;22.05;51.82
60820;BME280;46641;48.904;9.126;2023-05-20T11:23:04;98391.84;;;22.12;50.82
60820;BME280;46641;48.904;9.126;2023-05-20T11:27:54;98396.03;;;22.26;50.28
60820;BME280;46641;48.904;9.126;2023-05-20T11:32:58;98385.94;;;22.28;50.61
60820;BME280;46641;48.904;9.126;2023-05-20T11:42:46;98392.97;;;22.53;50.72
60820;BME280;46641;48.904;9.126;2023-05-20T11:47:37;98387.09;;;22.74;50.58
60820;BME280;46641;48.904;9.126;2023-05-20T11:52:27;98379.59;;;22.83;50.92
60820;BME280;46641;48.904;9.126;2023-05-20T11:57:18;98378.06;;;22.87;50.33
60820;BME280;46641;48.904;9.126;2023-05-20T12:02:09;98380.09;;;23.03;50.30
60820;BME280;46641;48.904;9.126;2023-05-20T12:06:59;98367.56;;;23.04;49.50
60820;BME280;46641;48.904;9.126;2023-05-20T12:11:50;98368.75;;;23.08;50.33
60820;BME280;46641;48.904;9.126;2023-05-20T12:16:41;98369.19;;;23.17;48.98
60820;BME280;46641;48.904;9.126;2023-05-20T12:21:31;98357.69;;;23.16;48.82
60820;BME280;46641;48.904;9.126;2023-05-20T12:26:23;98349.22;;;23.19;49.40
60820;BME280;46641;48.904;9.126;2023-05-20T12:31:13;98343.28;;;23.29;48.88
60820;BME280;46641;48.904;9.126;2023-05-20T12:36:04;98340.84;;;23.39;49.53
60820;BME280;46641;48.904;9.126;2023-05-20T12:40:55;98343.84;;;23.43;49.27
60820;BME280;46641;48.904;9.126;2023-05-20T12:45:45;98338.75;;;23.53;47.65
60820;BME280;46641;48.904;9.126;2023-05-20T12:50:36;98344.19;;;23.58;47.96
60820;BME280;46641;48.904;9.126;2023-05-20T12:55:26;98344.22;;;23.70;48.36
60820;BME280;46641;48.904;9.126;2023-05-20T13:00:17;98322.44;;;23.78;48.56
60820;BME280;46641;48.904;9.126;2023-05-20T13:05:08;98326.03;;;23.84;48.09
60820;BME280;46641;48.904;9.126;2023-05-20T13:09:58;98327.41;;;23.86;48.27
60820;BME280;46641;48.904;9.126;2023-05-20T13:14:49;98320.06;;;23.93;47.83
60820;BME280;46641;48.904;9.126;2023-05-20T13:19:39;98318.31;;;23.99;47.76
60820;BME280;46641;48.904;9.126;2023-05-20T13:24:30;98311.03;;;24.11;47.27
60820;BME280;46641;48.904;9.126;2023-05-20T13:29:20;98308.34;;;24.11;46.80
60820;BME280;46641;48.904;9.126;2023-05-20T13:34:11;98302.31;;;24.16;46.73
60820;BME280;46641;48.904;9.126;2023-05-20T13:39:01;98300.75;;;24.20;47.35
60820;BME280;46641;48.904;9.126;2023-05-20T13:43:52;98292.50;;;24.21;46.06
60820;BME280;46641;48.904;9.126;2023-05-20T13:48:42;98280.28;;;24.25;47.13
60820;BME280;46641;48.904;9.126;2023-05-20T13:53:32;98285.22;;;24.34;46.62
60820;BME280;46641;48.904;9.126;2023-05-20T13:58:23;98279.50;;;24.42;45.56
60820;BME280;46641;48.904;9.126;2023-05-20T14:03:13;98272.16;;;24.37;46.23
60820;BME280;46641;48.904;9.126;2023-05-20T14:08:04;98270.06;;;24.22;44.12
60820;BME280;46641;48.904;9.126;2023-05-20T14:12:56;98266.72;;;24.44;45.31
60820;BME280;46641;48.904;9.126;2023-05-20T14:17:47;98252.91;;;24.52;44.48
60820;BME280;46641;48.904;9.126;2023-05-20T14:22:37;98254.03;;;24.56;45.25
60820;BME280;46641;48.904;9.126;2023-05-20T14:27:28;98248.50;;;24.63;45.72
60820;BME280;46641;48.904;9.126;2023-05-20T14:32:19;98247.78;;;24.67;45.93
60820;BME280;46641;48.904;9.126;2023-05-20T14:37:09;98240.31;;;24.69;45.91
60820;BME280;46641;48.904;9.126;2023-05-20T14:42:01;98242.75;;;24.71;45.99
60820;BME280;46641;48.904;9.126;2023-05-20T14:46:52;98236.91;;;24.74;46.13
60820;BME280;46641;48.904;9.126;2023-05-20T14:51:42;98222.22;;;24.77;45.92
60820;BME280;46641;48.904;9.126;2023-05-20T14:56:32;98222.78;;;24.79;46.18
60820;BME280;46641;48.904;9.126;2023-05-20T15:01:23;98226.56;;;24.83;46.25
60820;BME280;46641;48.904;9.126;2023-05-20T15:06:14;98227.41;;;24.83;46.32
60820;BME280;46641;48.904;9.126;2023-05-20T15:11:04;98228.75;;;24.86;46.24
60820;BME280;46641;48.904;9.126;2023-05-20T15:15:54;98229.59;;;24.86;46.32
60820;BME280;46641;48.904;9.126;2023-05-20T15:20:45;98230.94;;;24.89;46.36
60820;BME280;46641;48.904;9.126;2023-05-20T15:25:35;98237.94;;;24.90;46.27
60820;BME280;46641;48.904;9.126;2023-05-20T15:30:26;98240.63;;;24.90;46.14
60820;BME280;46641;48.904;9.126;2023-05-20T15:35:16;98242.22;;;24.91;46.33
60820;BME280;46641;48.904;9.126;2023-05-20T15:40:07;98228.59;;;24.92;45.63
60820;BME280;46641;48.904;9.126;2023-05-20T15:44:57;98234.69;;;24.88;44.93
60820;BME280;46641;48.904;9.126;2023-05-20T15:49:48;98232.28;;;24.86;44.66
60820;BME280;46641;48.904;9.126;2023-05-20T15:54:38;98237.38;;;24.88;44.39
60820;BME280;46641;48.904;9.126;2023-05-20T15:59:28;98230.94;;;24.89;44.28
60820;BME280;46641;48.904;9.126;2023-05-20T16:04:19;98229.97;;;24.95;44.38
60820;BME280;46641;48.904;9.126;2023-05-20T16:09:09;98228.34;;;24.94;44.72
60820;BME280;46641;48.904;9.126;2023-05-20T16:13:59;98226.75;;;24.93;45.18
60820;BME280;46641;48.904;9.126;2023-05-20T16:18:50;98228.09;;;24.95;45.25
60820;BME280;46641;48.904;9.126;2023-05-20T16:23:41;98229.97;;;24.95;45.60
60820;BME280;46641;48.904;9.126;2023-05-20T16:28:32;98226.78;;;24.98;45.75
60820;BME280;46641;48.904;9.126;2023-05-20T16:33:22;98228.47;;;25.04;45.28
60820;BME280;46641;48.904;9.126;2023-05-20T16:38:13;98231.16;;;25.04;45.44
60820;BME280;46641;48.904;9.126;2023-05-20T16:43:03;98233.59;;;25.06;45.27
60820;BME280;46641;48.904;9.126;2023-05-20T16:47:54;98239.19;;;25.04;45.53
60820;BME280;46641;48.904;9.126;2023-05-20T16:52:45;98229.56;;;25.03;45.22
60820;BME280;46641;48.904;9.126;2023-05-20T16:57:35;98226.38;;;25.06;45.01
60820;BME280;46641;48.904;9.126;2023-05-20T17:02:26;98224.75;;;25.05;44.44
60820;BME280;46641;48.904;9.126;2023-05-20T17:07:16;98221.75;;;25.02;44.56
60820;BME280;46641;48.904;9.126;2023-05-20T17:12:06;98229.78;;;25.02;44.89
60820;BME280;46641;48.904;9.126;2023-05-20T17:16:57;98230.59;;;25.02;45.08
60820;BME280;46641;48.904;9.126;2023-05-20T17:21:47;98232.94;;;24.99;45.02
60820;BME280;46641;48.904;9.126;2023-05-20T17:26:38;98238.56;;;24.97;44.50
60820;BME280;46641;48.904;9.126;2023-05-20T17:31:28;98235.31;;;24.95;44.81
60820;BME280;46641;48.904;9.126;2023-05-20T17:36:18;98246.53;;;24.92;44.73
60820;BME280;46641;48.904;9.126;2023-05-20T17:41:11;98256.09;;;24.88;44.02
60820;BME280;46641;48.904;9.126;2023-05-20T17:46:01;98257.41;;;24.85;44.10
60820;BME280;46641;48.904;9.126;2023-05-20T17:50:51;98257.09;;;24.82;44.51
60820;BME280;46641;48.904;9.126;2023-05-20T17:55:41;98256.53;;;24.80;44.12
60820;BME280;46641;48.904;9.126;2023-05-20T18:00:35;98266.66;;;24.78;44.04
60820;BME280;46641;48.904;9.126;2023-05-20T18:05:31;98270.91;;;24.74;43.97
60820;BME280;46641;48.904;9.126;2023-05-20T18:10:21;98273.81;;;24.72;43.96
60820;BME280;46641;48.904;9.126;2023-05-20T18:15:11;98280.47;;;24.69;43.92
60820;BME280;46641;48.904;9.126;2023-05-20T18:20:07;98269.44;;;24.66;44.28
60820;BME280;46641;48.904;9.126;2023-05-20T18:24:58;98264.81;;;24.61;44.06
60820;BME280;46641;48.904;9.126;2023-05-20T18:29:49;98262.63;;;24.58;44.35
60820;BME280;46641;48.904;9.126;2023-05-20T18:34:40;98268.47;;;24.55;44.32
60820;BME280;46641;48.904;9.126;2023-05-20T18:39:30;98252.09;;;24.52;44.24
60820;BME280;46641;48.904;9.126;2023-05-20T18:44:20;98259.00;;;24.47;44.53
60820;BME280;46641;48.904;9.126;2023-05-20T18:49:11;98256.81;;;24.44;44.81
60820;BME280;46641;48.904;9.126;2023-05-20T18:54:01;98254.50;;;24.36;44.37
60820;BME280;46641;48.904;9.126;2023-05-20T18:58:51;98261.72;;;24.36;44.66
60820;BME280;46641;48.904;9.126;2023-05-20T19:03:42;98264.88;;;24.33;44.67
60820;BME280;46641;48.904;9.126;2023-05-20T19:08:33;98265.34;;;24.30;44.66
60820;BME280;46641;48.904;9.126;2023-05-20T19:13:24;98270.63;;;24.24;44.71
60820;BME280;46641;48.904;9.126;2023-05-20T19:18:14;98279.63;;;24.18;44.71
60820;BME280;46641;48.904;9.126;2023-05-20T19:23:05;98280.09;;;24.15;44.97
60820;BME280;46641;48.904;9.126;2023-05-20T19:27:55;98283.81;;;24.14;44.99
60820;BME280;46641;48.904;9.126;2023-05-20T19:32:46;98281.06;;;24.09;45.23
60820;BME280;46641;48.904;9.126;2023-05-20T19:37:36;98281.53;;;24.06;45.29
60820;BME280;46641;48.904;9.126;2023-05-20T19:42:26;98289.44;;;24.01;45.00
60820;BME280;46641;48.904;9.126;2023-05-20T19:47:17;98296.34;;;23.97;45.29
60820;BME280;46641;48.904;9.126;2023-05-20T19:52:07;98288.22;;;23.92;45.19
60820;BME280;46641;48.904;9.126;2023-05-20T19:56:57;98289.75;;;23.88;45.50
60820;BME280;46641;48.904;9.126;2023-05-20T20:01:48;98300.44;;;23.88;45.75
60820;BME280;46641;48.904;9.126;2023-05-20T20:06:38;98307.31;;;23.84;45.69
60820;BME280;46641;48.904;9.126;2023-05-20T20:11:28;98301.38;;;23.82;45.61
60820;BME280;46641;48.904;9.126;2023-05-20T20:16:18;98298.97;;;23.80;45.79
60820;BME280;46641;48.904;9.126;2023-05-20T20:21:09;98296.78;;;23.77;45.82
60820;BME280;46641;48.904;9.126;2023-05-20T20:26:00;98284.69;;;23.74;46.26
60820;BME280;46641;48.904;9.126;2023-05-20T20:30:50;98291.31;;;23.72;45.93
60820;BME280;46641;48.904;9.126;2023-05-20T20:35:41;98290.97;;;23.68;46.27
60820;BME280;46641;48.904;9.126;2023-05-20T20:40:31;98287.13;;;23.64;46.16
60820;BME280;46641;48.904;9.126;2023-05-20T20:45:22;98288.66;;;23.60;46.27
60820;BME280;46641;48.904;9.126;2023-05-20T20:50:12;98299.25;;;23.55;45.98
60820;BME280;46641;48.904;9.126;2023-05-20T20:55:05;98294.38;;;23.52;46.14
60820;BME280;46641;48.904;9.126;2023-05-20T20:59:55;98285.22;;;23.48;46.53
60820;BME280;46641;48.904;9.126;2023-05-20T21:04:47;98298.22;;;23.44;46.54
60820;BME280;46641;48.904;9.126;2023-05-20T21:09:37;98287.22;;;23.41;46.68
60820;BME280;46641;48.904;9.126;2023-05-20T21:14:27;98289.53;;;23.37;46.59
60820;BME280;46641;48.904;9.126;2023-05-20T21:19:19;98283.84;;;23.33;46.77
60820;BME280;46641;48.904;9.126;2023-05-20T21:24:09;98288.63;;;23.31;47.01
60820;BME280;46641;48.904;9.126;2023-05-20T21:28:59;98278.41;;;23.28;47.15
60820;BME280;46641;48.904;9.126;2023-05-20T21:33:50;98275.38;;;23.25;47.53
60820;BME280;46641;48.904;9.126;2023-05-20T21:38:40;98273.19;;;23.22;46.72
60820;BME280;46641;48.904;9.126;2023-05-20T21:43:31;98272.03;;;23.18;46.97
60820;BME280;46641;48.904;9.126;2023-05-20T21:48:21;98267.97;;;23.15;47.26
60820;BME280;46641;48.904;9.126;2023-05-20T21:53:11;98271.91;;;23.13;47.42
60820;BME280;46641;48.904;9.126;2023-05-20T21:58:02;98274.25;;;23.09;47.63
60820;BME280;46641;48.904;9.126;2023-05-20T22:02:52;98265.09;;;23.05;47.46
60820;BME280;46641;48.904;9.126;2023-05-20T22:07:42;98269.03;;;23.02;47.90
60820;BME280;46641;48.904;9.126;2023-05-20T22:12:36;98253.94;;;22.96;47.65
60820;BME280;46641;48.904;9.126;2023-05-20T22:17:31;98249.28;;;22.92;47.99
60820;BME280;46641;48.904;9.126;2023-05-20T22:22:25;98233.97;;;22.87;48.24
60820;BME280;46641;48.904;9.126;2023-05-20T22:27:15;98230.94;;;22.83;48.44
60820;BME280;46641;48.904;9.126;2023-05-20T22:32:06;98226.66;;;22.82;48.22
60820;BME280;46641;48.904;9.126;2023-05-20T22:36:56;98232.47;;;22.79;48.63
60820;BME280;46641;48.904;9.126;2023-05-20T22:41:47;98230.25;;;22.76;48.64
60820;BME280;46641;48.904;9.126;2023-05-20T22:46:37;98225.38;;;22.73;47.37
60820;BME280;46641;48.904;9.126;2023-05-20T22:51:27;98225.84;;;22.70;47.06
60820;BME280;46641;48.904;9.126;2023-05-20T22:56:18;98223.66;;;22.67;46.74
60820;BME280;46641;48.904;9.126;2023-05-20T23:01:08;98224.13;;;22.64;46.42
60820;BME280;46641;48.904;9.126;2023-05-20T23:05:59;98220.03;;;22.61;46.11
60820;BME280;46641;48.904;9.126;2023-05-20T23:10:50;98218.69;;;22.59;46.43
60820;BME280;46641;48.904;9.126;2023-05-20T23:15:40;98216.22;;;22.57;46.26
60820;BME280;46641;48.904;9.126;2023-05-20T23:20:30;98213.22;;;22.54;46.42
60820;BME280;46641;48.904;9.126;2023-05-20T23:25:20;98205.69;;;22.51;46.76
60820;BME280;46641;48.904;9.126;2023-05-20T23:30:11;98197.31;;;22.47;46.47
60820;BME280;46641;48.904;9.126;2023-05-20T23:35:01;98200.47;;;22.44;46.68
60820;BME280;46641;48.904;9.126;2023-05-20T23:39:51;98193.72;;;22.42;47.76
60820;BME280;46641;48.904;9.126;2023-05-20T23:44:42;98204.03;;;22.38;47.51
60820;BME280;46641;48.904;9.126;2023-05-20T23:49:32;98194.09;;;22.33;47.30
60820;BME280;46641;48.904;9.126;2023-05-20T23:54:23;98195.56;;;22.29;47.50
60820;BME280;46641;48.904;9.126;2023-05-20T23:59:13;98188.06;;;22.26;47.11
